Time;durP1;ratioP1;P1;durP2;ratioP2;P2;SDS_P1;SDS_P2;PMS_P1;PMS_P2;Temp;Humidity;BMP_temperature;BMP_pressure;BME280_temperature;BME280_humidity;BME280_pressure;Samples;Min_cycle;Max_cycle;Signal;HPM_P1;HPM_P2
2022/01/14 00:00:38;;;;;;;19.38;10.43;;;7.60;99.90;;;;;;5091580;28;20123;-72
2022/01/14 00:03:03;;;;;;;21.52;9.70;;;7.90;99.90;;;;;;5106418;27;20062;-73
2022/01/14 00:05:29;;;;;;;19.02;10.93;;;8.00;99.90;;;;;;5124959;27;20044;-73
2022/01/14 00:07:55;;;;;;;20.98;10.15;;;7.40;99.90;;;;;;5120375;27;20049;-73
2022/01/14 00:10:20;;;;;;;22.63;11.35;;;8.00;99.90;;;;;;5091366;28;20503;-72
2022/01/14 00:12:54;;;;;;;21.45;11.05;;;7.90;99.90;;;;;;5127434;27;20532;-71
2022/01/14 00:15:26;;;;;;;26.20;11.48;;;7.80;99.90;;;;;;5113739;27;20039;-74
2022/01/14 00:17:53;;;;;;;15.80;10.27;;;7.90;99.90;;;;;;5115376;27;20046;-72
2022/01/14 00:20:21;;;;;;;21.15;12.30;;;7.40;99.90;;;;;;5131276;27;20039;-72
2022/01/14 00:22:47;;;;;;;18.05;10.43;;;7.30;99.90;;;;;;5113657;27;20044;-72
2022/01/14 00:33:26;;;;;;;19.10;9.70;;;7.10;99.90;;;;;;5116108;27;20459;-72
2022/01/14 00:35:52;;;;;;;19.20;9.25;;;7.10;99.90;;;;;;5115495;27;20049;-72
2022/01/14 00:38:18;;;;;;;18.35;9.73;;;7.10;99.90;;;;;;5115082;27;21746;-72
2022/01/14 00:40:44;;;;;;;28.15;9.88;;;7.60;99.90;;;;;;5115927;27;20038;-72
2022/01/14 00:43:10;;;;;;;23.13;11.35;;;7.80;99.90;;;;;;5113894;27;20039;-72
2022/01/14 00:45:37;;;;;;;21.52;10.65;;;7.70;99.90;;;;;;5132512;27;20039;-72
2022/01/14 00:48:03;;;;;;;29.63;11.20;;;7.50;99.90;;;;;;5129733;27;20094;-72
2022/01/14 00:50:29;;;;;;;18.30;9.90;;;7.30;99.90;;;;;;5110090;27;20042;-72
2022/01/14 00:52:54;;;;;;;22.42;9.95;;;7.60;99.90;;;;;;5118082;27;20034;-73
2022/01/14 00:55:29;;;;;;;18.88;10.77;;;7.10;99.90;;;;;;5066851;27;20042;-73
2022/01/14 01:00:33;;;;;;;18.50;11.27;;;7.50;99.90;;;;;;5126982;27;20050;-73
2022/01/14 01:03:00;;;;;;;;;;;7.60;99.90;;;;;;5132745;27;20038;-72
2022/01/14 01:05:25;;;;;;;20.00;10.70;;;7.00;99.90;;;;;;5111557;27;19925;-73
2022/01/14 01:08:19;;;;;;;28.67;11.23;;;7.10;99.90;;;;;;5115426;27;20034;-73
2022/01/14 01:10:47;;;;;;;16.38;9.80;;;7.20;99.90;;;;;;5138025;27;20044;-75
2022/01/14 01:13:21;;;;;;;;;;;7.60;99.90;;;;;;5120815;27;20073;-74
2022/01/14 01:15:49;;;;;;;26.00;11.02;;;7.50;99.90;;;;;;5121743;27;20014;-75
2022/01/14 01:18:16;;;;;;;22.92;10.82;;;7.70;99.90;;;;;;5137080;27;20051;-75
2022/01/14 01:20:42;;;;;;;21.02;10.00;;;7.60;99.90;;;;;;5100154;27;20047;-74
2022/01/14 01:23:07;;;;;;;27.58;11.85;;;7.70;99.90;;;;;;5131437;27;20046;-75
2022/01/14 01:25:40;;;;;;;25.58;10.73;;;7.40;99.90;;;;;;5121156;27;20061;-74
2022/01/14 01:28:06;;;;;;;21.33;10.93;;;7.60;99.90;;;;;;5120133;27;20117;-74
2022/01/14 01:33:00;;;;;;;23.40;10.80;;;7.50;99.90;;;;;;5138581;27;20479;-73
2022/01/14 01:35:26;;;;;;;22.13;10.57;;;7.50;99.90;;;;;;5135484;27;20046;-73
2022/01/14 01:37:52;;;;;;;18.20;9.77;;;7.00;99.90;;;;;;5102971;27;20039;-73
2022/01/14 01:40:20;;;;;;;23.48;10.43;;;7.00;99.90;;;;;;5138549;27;20046;-73
2022/01/14 01:42:46;;;;;;;27.58;11.52;;;7.00;99.90;;;;;;5121245;27;20900;-73
2022/01/14 01:45:20;;;;;;;26.42;11.63;;;7.10;99.90;;;;;;5121138;27;20087;-73
2022/01/14 01:47:50;;;;;;;18.80;9.88;;;7.10;99.90;;;;;;5120483;27;20463;-73
2022/01/14 01:50:21;;;;;;;21.30;10.13;;;7.30;99.90;;;;;;5122358;27;20264;-72
2022/01/14 01:52:47;;;;;;;22.00;10.75;;;7.40;99.90;;;;;;5111118;27;20495;-73
2022/01/14 01:55:14;;;;;;;22.05;10.88;;;7.70;99.90;;;;;;5124690;27;20047;-74
2022/01/14 01:57:43;;;;;;;24.42;10.90;;;7.30;99.90;;;;;;5134934;27;20038;-74
2022/01/14 02:00:12;;;;;;;27.55;12.00;;;7.70;99.90;;;;;;5117267;27;20063;-73
2022/01/14 02:02:38;;;;;;;24.35;11.05;;;7.40;99.90;;;;;;5134498;27;20038;-76
2022/01/14 02:05:05;;;;;;;23.75;11.63;;;7.70;99.90;;;;;;5137276;27;20037;-74
2022/01/14 02:07:32;;;;;;;22.65;10.05;;;7.10;99.90;;;;;;5119452;27;20037;-74
2022/01/14 02:09:59;;;;;;;25.83;10.32;;;7.50;99.90;;;;;;5135293;27;20070;-74
2022/01/14 02:12:26;;;;;;;26.48;11.48;;;7.30;99.90;;;;;;5127071;27;20049;-74
2022/01/14 02:14:56;;;;;;;23.80;11.32;;;7.40;99.90;;;;;;5119315;27;20444;-73
2022/01/14 02:23:01;;;;;;;23.25;11.25;;;7.60;99.90;;;;;;5119747;27;20607;-73
2022/01/14 02:25:29;;;;;;;22.20;11.68;;;7.80;99.90;;;;;;5132463;27;20041;-73
2022/01/14 02:28:17;;;;;;;24.10;11.63;;;7.30;99.90;;;;;;5132573;27;20096;-73
2022/01/14 02:30:46;;;;;;;24.35;11.50;;;7.80;99.90;;;;;;5112916;27;20043;-73
2022/01/14 02:33:13;;;;;;;19.23;10.70;;;7.20;99.90;;;;;;5135288;27;20035;-73
2022/01/14 02:35:42;;;;;;;22.65;11.73;;;7.10;99.90;;;;;;5114768;27;20039;-72
2022/01/14 02:38:13;;;;;;;21.85;11.00;;;7.80;99.90;;;;;;5132714;27;20502;-73
2022/01/14 02:40:39;;;;;;;22.48;11.00;;;7.50;99.90;;;;;;5079692;27;20079;-73
2022/01/14 02:43:11;;;;;;;25.67;12.38;;;7.60;99.90;;;;;;5135288;27;20065;-73
2022/01/14 02:45:37;;;;;;;20.88;11.85;;;7.50;99.90;;;;;;5113663;27;20491;-73
2022/01/14 02:48:04;;;;;;;23.83;12.40;;;7.80;99.90;;;;;;5135150;27;20038;-72
2022/01/14 02:50:55;;;;;;;22.10;11.25;;;7.80;99.90;;;;;;5131256;27;20038;-74
2022/01/14 02:53:29;;;;;;;22.00;12.85;;;7.70;99.90;;;;;;5114747;27;20035;-73
2022/01/14 02:55:58;;;;;;;27.83;13.30;;;7.30;99.90;;;;;;5121197;27;20054;-73
2022/01/14 02:58:26;;;;;;;24.48;12.43;;;7.80;99.90;;;;;;5113514;27;20039;-73
2022/01/14 03:00:53;;;;;;;28.17;14.02;;;7.80;99.90;;;;;;5109435;27;20138;-73
2022/01/14 03:03:23;;;;;;;28.25;12.43;;;7.20;99.90;;;;;;5123121;27;20038;-74
2022/01/14 03:05:51;;;;;;;19.85;12.82;;;7.60;99.90;;;;;;5095469;27;20043;-74
2022/01/14 03:08:22;;;;;;;22.05;12.68;;;7.70;99.90;;;;;;5113093;27;20038;-73
2022/01/14 03:11:00;;;;;;;21.73;12.88;;;7.70;99.90;;;;;;5129820;27;20510;-73
2022/01/14 03:13:27;;;;;;;20.77;12.18;;;7.30;99.90;;;;;;5133573;27;20103;-73
2022/01/14 03:15:53;;;;;;;21.30;11.68;;;7.70;99.90;;;;;;5099215;27;20077;-72
2022/01/14 03:18:30;;;;;;;25.88;13.15;;;7.40;99.90;;;;;;5133731;27;20071;-73
2022/01/14 03:21:08;;;;;;;18.80;12.18;;;7.30;99.90;;;;;;5115436;27;20073;-73
2022/01/14 03:23:42;;;;;;;20.40;12.13;;;7.80;99.90;;;;;;5130879;27;20169;-73
2022/01/14 03:26:07;;;;;;;22.70;12.75;;;7.30;99.90;;;;;;5115932;27;20470;-72
2022/01/14 03:28:33;;;;;;;27.25;12.63;;;7.50;99.90;;;;;;5132797;27;20041;-73
2022/01/14 03:30:59;;;;;;;28.95;14.00;;;7.30;99.90;;;;;;5132413;27;20042;-73
2022/01/14 03:33:24;;;;;;;20.40;11.77;;;7.80;99.90;;;;;;5113370;27;20117;-73
2022/01/14 03:35:50;;;;;;;30.80;12.88;;;7.20;99.90;;;;;;5112760;27;20060;-72
2022/01/14 03:38:17;;;;;;;21.63;12.02;;;7.80;99.90;;;;;;5133221;27;20562;-73
2022/01/14 03:40:43;;;;;;;21.85;12.55;;;7.60;99.90;;;;;;5114293;27;20094;-73
2022/01/14 03:43:10;;;;;;;24.33;12.63;;;7.80;99.90;;;;;;5133364;27;20125;-73
2022/01/14 03:45:37;;;;;;;21.13;13.82;;;7.50;99.90;;;;;;5114622;27;20035;-73
2022/01/14 03:48:04;;;;;;;17.90;11.80;;;7.50;99.90;;;;;;5131113;27;20034;-73
2022/01/14 03:50:29;;;;;;;24.98;13.43;;;7.30;99.90;;;;;;5096032;27;20031;-73
2022/01/14 03:52:55;;;;;;;25.38;13.40;;;7.50;99.90;;;;;;5116016;27;20041;-74
2022/01/14 03:55:21;;;;;;;25.70;13.15;;;7.30;99.90;;;;;;5111265;27;20034;-73
2022/01/14 03:57:47;;;;;;;26.17;12.95;;;7.90;99.90;;;;;;5114293;27;20038;-73
2022/01/14 04:00:13;;;;;;;29.35;16.45;;;8.10;99.90;;;;;;5093757;27;20038;-74
2022/01/14 04:02:39;;;;;;;26.75;14.48;;;7.40;99.90;;;;;;5115067;27;20121;-74
2022/01/14 04:05:05;;;;;;;26.80;14.85;;;7.80;99.90;;;;;;5113493;27;21830;-74
2022/01/14 04:07:31;;;;;;;30.83;14.88;;;8.10;99.90;;;;;;5079208;27;20030;-75
2022/01/14 04:09:56;;;;;;;26.60;13.63;;;7.80;99.90;;;;;;5112271;27;20039;-74
2022/01/14 04:12:34;;;;;;;25.50;14.30;;;8.10;99.90;;;;;;5096479;27;20386;-75
2022/01/14 04:17:27;;;;;;;26.02;14.90;;;7.40;99.90;;;;;;5113071;27;20039;-77
2022/01/14 04:19:52;;;;;;;24.08;13.55;;;7.90;99.90;;;;;;5114607;27;20605;-75
2022/01/14 04:22:18;;;;;;;24.98;13.80;;;7.80;99.90;;;;;;5130368;27;20043;-74
2022/01/14 04:24:44;;;;;;;22.60;13.55;;;8.00;99.90;;;;;;5132636;27;20553;-75
2022/01/14 04:27:09;;;;;;;27.55;12.70;;;7.60;99.90;;;;;;5131787;27;20033;-74
2022/01/14 04:29:35;;;;;;;21.15;13.02;;;7.20;99.90;;;;;;5093797;27;20390;-74
2022/01/14 04:32:01;;;;;;;22.25;13.77;;;7.40;99.90;;;;;;5074349;27;20041;-73
2022/01/14 04:34:26;;;;;;;23.00;13.05;;;7.00;99.90;;;;;;5113995;27;20031;-73
2022/01/14 04:36:52;;;;;;;19.45;11.90;;;7.30;99.90;;;;;;5127861;27;20034;-74
2022/01/14 04:39:18;;;;;;;20.88;13.65;;;7.00;99.90;;;;;;5075424;27;20067;-73
2022/01/14 04:41:43;;;;;;;21.05;12.30;;;7.70;99.90;;;;;;5130403;27;20398;-73
2022/01/14 04:44:09;;;;;;;23.30;13.30;;;7.00;99.90;;;;;;5113658;27;20505;-74
2022/01/14 04:49:06;;;;;;;20.85;12.63;;;7.60;99.90;;;;;;5114220;27;20049;-73
2022/01/14 04:51:32;;;;;;;31.40;13.68;;;6.90;99.90;;;;;;5110765;27;20114;-73
2022/01/14 04:53:58;;;;;;;25.25;14.00;;;7.60;99.90;;;;;;5114159;27;20042;-73
2022/01/14 04:56:24;;;;;;;23.73;13.95;;;7.30;99.90;;;;;;5096387;27;20439;-72
2022/01/14 04:58:49;;;;;;;20.85;13.15;;;7.80;99.90;;;;;;5127543;27;20039;-73
2022/01/14 05:01:15;;;;;;;21.65;14.00;;;7.20;99.90;;;;;;5114240;27;20050;-73
2022/01/14 05:03:41;;;;;;;25.08;13.93;;;7.30;99.90;;;;;;5131272;27;20031;-74
2022/01/14 05:06:07;;;;;;;24.65;14.18;;;7.10;99.90;;;;;;5114581;27;20039;-74
2022/01/14 05:08:38;;;;;;;28.13;14.45;;;7.50;99.90;;;;;;5111183;27;20039;-73
2022/01/14 05:11:23;;;;;;;21.42;12.25;;;7.70;99.90;;;;;;5113505;27;20416;-74
2022/01/14 05:13:49;;;;;;;34.88;15.38;;;7.20;99.90;;;;;;5114308;27;20663;-72
2022/01/14 05:16:14;;;;;;;24.77;14.30;;;7.30;99.90;;;;;;5131319;27;20042;-74
2022/01/14 05:18:40;;;;;;;28.63;14.38;;;7.20;99.90;;;;;;5113708;27;20047;-73
2022/01/14 05:21:06;;;;;;;26.92;14.07;;;7.90;99.90;;;;;;5096468;27;20129;-74
2022/01/14 05:23:32;;;;;;;29.38;13.98;;;7.70;99.90;;;;;;5131721;27;20130;-74
2022/01/14 05:25:58;;;;;;;29.52;14.57;;;7.50;99.90;;;;;;5111953;27;20047;-74
2022/01/14 05:28:24;;;;;;;22.85;14.07;;;7.70;99.90;;;;;;5113614;27;20158;-74
2022/01/14 05:30:49;;;;;;;26.42;14.73;;;7.90;99.90;;;;;;5131209;27;20041;-73
2022/01/14 05:33:16;;;;;;;27.85;14.82;;;7.20;99.90;;;;;;5111189;27;20035;-73
2022/01/14 05:35:42;;;;;;;22.23;13.32;;;8.20;99.90;;;;;;5108817;27;20035;-74
2022/01/14 05:38:08;;;;;;;24.60;13.20;;;7.90;99.90;;;;;;5098380;27;20165;-73
2022/01/14 05:40:34;;;;;;;21.60;12.32;;;7.90;99.90;;;;;;5115498;27;20080;-74
2022/01/14 05:43:00;;;;;;;27.88;13.25;;;7.50;99.90;;;;;;5092028;27;20074;-74
2022/01/14 05:45:27;;;;;;;23.05;14.75;;;7.60;99.90;;;;;;5088552;27;20049;-73
2022/01/14 05:47:54;;;;;;;23.75;12.68;;;7.80;99.90;;;;;;5130923;27;20122;-74
2022/01/14 05:50:23;;;;;;;23.65;14.05;;;7.50;99.90;;;;;;5111458;28;20115;-75
2022/01/14 05:52:49;;;;;;;25.60;13.73;;;7.30;99.90;;;;;;5095526;28;20435;-73
2022/01/14 05:55:18;;;;;;;24.75;14.23;;;7.20;99.90;;;;;;5110204;27;20565;-73
2022/01/14 05:57:44;;;;;;;25.17;12.95;;;7.40;99.90;;;;;;5134850;27;20030;-74
2022/01/14 06:00:13;;;;;;;26.98;14.05;;;7.50;99.90;;;;;;5118261;27;20069;-74
2022/01/14 06:02:39;;;;;;;21.05;13.80;;;7.30;99.90;;;;;;5118627;27;20034;-73
2022/01/14 06:05:05;;;;;;;24.92;13.43;;;7.80;99.90;;;;;;5114552;27;20092;-73
2022/01/14 06:07:30;;;;;;;23.75;13.63;;;7.70;99.90;;;;;;5135293;27;20117;-73
2022/01/14 06:09:56;;;;;;;23.80;13.63;;;7.50;99.90;;;;;;5135145;27;20125;-72
2022/01/14 06:12:22;;;;;;;25.38;14.07;;;7.20;99.90;;;;;;5102354;27;20428;-73
2022/01/14 06:14:47;;;;;;;26.58;13.35;;;8.00;99.90;;;;;;5099835;27;20054;-73
2022/01/14 06:17:13;;;;;;;23.98;13.60;;;7.20;99.90;;;;;;5118496;27;20841;-73
2022/01/14 06:19:39;;;;;;;24.85;13.48;;;8.00;99.90;;;;;;5117191;27;20038;-73
2022/01/14 06:22:05;;;;;;;25.30;15.55;;;7.80;99.90;;;;;;5101760;27;20041;-73
2022/01/14 06:24:30;;;;;;;25.42;13.43;;;7.40;99.90;;;;;;5116780;27;20511;-73
2022/01/14 06:26:56;;;;;;;25.42;14.23;;;7.50;99.90;;;;;;5116670;27;20038;-73
2022/01/14 06:29:22;;;;;;;22.83;13.30;;;7.60;99.90;;;;;;5117345;27;20054;-72
2022/01/14 06:31:49;;;;;;;25.33;13.45;;;7.30;99.90;;;;;;5117830;27;20128;-73
2022/01/14 06:34:14;;;;;;;24.48;12.73;;;7.20;99.90;;;;;;5118578;27;20038;-72
2022/01/14 06:36:42;;;;;;;21.23;12.77;;;7.40;99.90;;;;;;5117996;27;20074;-73
2022/01/14 06:39:08;;;;;;;25.40;12.75;;;7.50;99.90;;;;;;5116566;27;20042;-73
2022/01/14 06:41:34;;;;;;;20.40;12.15;;;7.40;99.90;;;;;;5116842;27;20123;-74
2022/01/14 06:43:59;;;;;;;22.38;11.95;;;7.20;99.90;;;;;;5116509;27;20064;-75
2022/01/14 06:46:25;;;;;;;22.45;11.98;;;7.80;99.90;;;;;;5117134;27;20389;-74
2022/01/14 06:48:51;;;;;;;22.48;12.52;;;7.50;99.90;;;;;;5084233;27;20172;-74
2022/01/14 06:51:16;;;;;;;25.52;12.15;;;7.70;99.90;;;;;;5115163;27;20077;-73
2022/01/14 06:53:42;;;;;;;23.13;12.57;;;7.20;99.90;;;;;;5095880;27;20046;-74
2022/01/14 06:56:11;;;;;;;28.40;12.05;;;7.30;99.90;;;;;;5117467;27;20068;-73
2022/01/14 06:58:37;;;;;;;17.45;10.98;;;7.70;99.90;;;;;;5117998;27;20047;-73
2022/01/14 07:01:04;;;;;;;23.27;12.30;;;7.40;99.90;;;;;;5116831;27;20039;-74
2022/01/14 07:03:29;;;;;;;17.23;10.43;;;7.30;99.90;;;;;;5131490;27;20034;-73
2022/01/14 07:05:55;;;;;;;17.83;11.10;;;7.90;99.90;;;;;;5115396;27;20038;-73
2022/01/14 07:08:21;;;;;;;21.35;10.48;;;8.00;99.90;;;;;;5091394;27;20723;-73
2022/01/14 07:10:46;;;;;;;21.75;11.32;;;8.00;99.90;;;;;;5114071;27;20077;-73
2022/01/14 07:13:12;;;;;;;21.50;10.63;;;7.30;99.90;;;;;;5115814;27;20034;-72
2022/01/14 07:15:39;;;;;;;18.67;10.52;;;8.00;99.90;;;;;;5099486;27;20047;-74
2022/01/14 07:18:05;;;;;;;18.25;9.82;;;7.90;99.90;;;;;;5095428;27;20044;-73
2022/01/14 07:20:31;;;;;;;17.52;9.82;;;7.30;99.90;;;;;;5097701;27;20043;-74
2022/01/14 07:22:56;;;;;;;20.17;10.77;;;7.90;99.90;;;;;;5101394;27;20041;-74
2022/01/14 07:25:22;;;;;;;18.65;10.40;;;7.80;99.90;;;;;;5116611;27;20051;-74
2022/01/14 07:27:48;;;;;;;19.80;9.65;;;8.00;99.90;;;;;;5135099;27;20101;-73
2022/01/14 07:30:15;;;;;;;20.17;9.93;;;7.40;99.90;;;;;;5115817;27;20047;-74
2022/01/14 07:32:45;;;;;;;22.45;10.00;;;7.90;99.90;;;;;;5115696;27;20041;-75
2022/01/14 07:35:11;;;;;;;17.75;9.68;;;7.40;99.90;;;;;;5113983;27;20094;-74
2022/01/14 07:37:38;;;;;;;19.50;9.30;;;7.40;99.90;;;;;;5133269;27;20027;-76
2022/01/14 07:40:11;;;;;;;16.65;8.65;;;7.50;99.90;;;;;;5092840;27;20035;-75
2022/01/14 07:42:37;;;;;;;19.17;7.72;;;8.10;99.90;;;;;;5099164;27;20044;-74
2022/01/14 07:45:04;;;;;;;19.90;8.68;;;7.40;99.90;;;;;;5099686;27;20125;-73
2022/01/14 07:47:31;;;;;;;17.05;8.55;;;7.60;99.90;;;;;;5099948;27;20042;-74
2022/01/14 07:49:56;;;;;;;16.48;8.27;;;8.00;99.90;;;;;;5133924;27;20042;-74
2022/01/14 07:52:22;;;;;;;16.58;8.40;;;7.60;99.90;;;;;;5117276;27;20042;-74
2022/01/14 07:54:48;;;;;;;16.73;8.30;;;7.60;99.90;;;;;;5132893;27;20379;-75
2022/01/14 07:57:14;;;;;;;14.57;8.02;;;7.70;99.90;;;;;;5116677;27;20118;-75
2022/01/14 07:59:41;;;;;;;22.10;8.60;;;7.50;99.90;;;;;;5116893;27;20443;-74
2022/01/14 08:02:06;;;;;;;19.63;8.77;;;7.40;99.90;;;;;;5132365;27;20034;-74
2022/01/14 08:04:35;;;;;;;12.20;7.35;;;7.40;99.90;;;;;;5134083;27;20533;-75
2022/01/14 08:07:08;;;;;;;17.70;7.60;;;7.90;99.90;;;;;;5125803;27;20031;-76
2022/01/14 08:09:42;;;;;;;14.95;7.88;;;7.80;99.90;;;;;;5106348;27;20117;-76
2022/01/14 08:12:09;;;;;;;12.77;7.05;;;7.90;99.90;;;;;;5115563;27;20125;-75
2022/01/14 08:14:36;;;;;;;12.82;6.82;;;7.60;99.90;;;;;;5132353;27;20073;-77
2022/01/14 08:17:02;;;;;;;16.88;6.45;;;7.80;99.90;;;;;;5116830;27;20664;-74
2022/01/14 08:19:32;;;;;;;14.15;7.65;;;7.70;99.90;;;;;;5132859;27;20061;-76
2022/01/14 08:22:00;;;;;;;16.23;7.28;;;8.00;99.90;;;;;;5114600;27;20049;-76
2022/01/14 08:24:25;;;;;;;19.23;7.95;;;7.60;99.90;;;;;;5132832;27;20534;-75
2022/01/14 08:26:51;;;;;;;19.67;7.88;;;7.80;99.90;;;;;;5081195;27;20114;-74
2022/01/14 08:29:17;;;;;;;18.58;7.20;;;8.30;99.90;;;;;;5092829;27;20035;-73
2022/01/14 08:31:43;;;;;;;16.80;6.88;;;7.80;99.90;;;;;;5115269;27;20042;-75
2022/01/14 08:34:09;;;;;;;18.80;6.85;;;7.60;99.90;;;;;;5089032;27;20043;-75
2022/01/14 08:36:34;;;;;;;16.80;6.72;;;8.00;99.90;;;;;;5095891;27;20043;-76
2022/01/14 08:39:00;;;;;;;14.57;7.88;;;7.70;99.90;;;;;;5081412;27;20043;-74
2022/01/14 08:41:30;;;;;;;17.95;6.75;;;7.90;99.90;;;;;;5079163;27;20042;-74
2022/01/14 08:44:00;;;;;;;17.75;7.07;;;8.40;99.90;;;;;;5081844;27;20042;-75
2022/01/14 08:46:27;;;;;;;9.75;6.03;;;8.30;99.90;;;;;;5116241;27;20039;-76
2022/01/14 08:48:54;;;;;;;17.50;6.97;;;8.30;99.90;;;;;;5116041;27;20066;-75
2022/01/14 08:51:21;;;;;;;12.68;6.75;;;7.70;99.90;;;;;;5098527;27;20034;-73
2022/01/14 08:53:47;;;;;;;15.93;7.30;;;8.10;99.90;;;;;;5115893;27;20068;-75
2022/01/14 08:56:13;;;;;;;16.35;5.65;;;8.10;99.90;;;;;;5115995;27;20600;-74
2022/01/14 08:58:40;;;;;;;12.52;6.78;;;8.40;99.90;;;;;;5116007;27;20034;-75
2022/01/14 09:01:06;;;;;;;11.15;6.10;;;8.40;99.90;;;;;;5130677;27;20051;-74
2022/01/14 09:03:31;;;;;;;15.55;5.82;;;7.90;99.90;;;;;;5085490;27;20091;-74
2022/01/14 09:05:57;;;;;;;10.65;5.75;;;8.00;99.90;;;;;;5132348;27;20121;-74
2022/01/14 09:08:23;;;;;;;16.40;6.10;;;8.40;99.90;;;;;;5133176;27;20478;-73
2022/01/14 09:10:49;;;;;;;14.18;6.60;;;8.50;99.90;;;;;;5081088;27;20034;-73
2022/01/14 09:13:15;;;;;;;14.23;5.82;;;7.90;99.90;;;;;;5132024;27;20038;-73
2022/01/14 09:15:41;;;;;;;12.13;6.65;;;8.60;99.90;;;;;;5079091;28;20059;-73
2022/01/14 09:18:07;;;;;;;15.65;6.03;;;8.20;99.90;;;;;;5097952;27;20138;-72
2022/01/14 09:20:32;;;;;;;19.75;5.95;;;8.40;99.90;;;;;;5100892;28;20046;-72
2022/01/14 09:22:59;;;;;;;11.77;5.57;;;8.20;99.90;;;;;;5101112;27;20073;-73
2022/01/14 09:25:25;;;;;;;12.35;5.30;;;8.10;99.90;;;;;;5095305;28;20074;-72
2022/01/14 09:27:52;;;;;;;12.25;4.85;;;8.50;99.90;;;;;;5098361;27;20027;-72
2022/01/14 09:30:22;;;;;;;14.38;5.18;;;8.20;99.90;;;;;;5117164;27;20759;-72
2022/01/14 09:32:48;;;;;;;9.13;5.05;;;8.10;99.90;;;;;;5120054;27;20688;-72
2022/01/14 09:35:15;;;;;;;8.15;4.43;;;8.00;99.90;;;;;;5136362;27;20397;-72
2022/01/14 09:37:44;;;;;;;10.70;4.90;;;8.70;99.90;;;;;;5120058;27;20049;-73
2022/01/14 09:40:10;;;;;;;12.63;4.38;;;8.20;99.90;;;;;;5119528;27;20081;-72
2022/01/14 09:42:36;;;;;;;9.60;3.90;;;8.10;99.90;;;;;;5137088;27;20034;-72
2022/01/14 09:45:03;;;;;;;11.18;4.40;;;8.70;99.90;;;;;;5115159;27;20544;-73
2022/01/14 09:47:29;;;;;;;11.68;4.05;;;8.40;99.90;;;;;;5100377;27;20066;-71
2022/01/14 09:49:54;;;;;;;5.63;3.20;;;8.70;99.90;;;;;;5107816;27;20026;-71
2022/01/14 09:52:20;;;;;;;12.00;4.13;;;8.10;99.90;;;;;;5119469;27;20039;-73
2022/01/14 09:54:48;;;;;;;10.25;3.63;;;8.70;99.90;;;;;;5096168;27;20430;-73
2022/01/14 09:57:16;;;;;;;9.25;3.50;;;8.20;99.90;;;;;;5081387;27;20047;-76
2022/01/14 09:59:42;;;;;;;11.85;3.13;;;8.80;99.90;;;;;;5106862;27;20045;-75
2022/01/14 10:02:08;;;;;;;7.72;3.50;;;8.20;99.90;;;;;;5098725;27;20129;-73
2022/01/14 10:04:35;;;;;;;12.35;3.58;;;8.60;99.90;;;;;;5131069;27;20038;-73
2022/01/14 10:07:03;;;;;;;25.02;5.30;;;8.30;99.90;;;;;;5113119;27;20133;-73
2022/01/14 10:09:42;;;;;;;11.38;2.97;;;8.00;99.90;;;;;;5113622;27;20042;-74
2022/01/14 10:12:13;;;;;;;14.98;4.57;;;8.50;99.90;;;;;;5119533;27;20043;-74
2022/01/14 10:14:44;;;;;;;16.27;4.45;;;8.70;99.90;;;;;;5087039;28;20437;-73
2022/01/14 10:17:11;;;;;;;14.10;3.13;;;8.00;99.90;;;;;;5089116;28;20055;-73
2022/01/14 10:19:43;;;;;;;9.20;3.05;;;8.50;99.90;;;;;;5122406;27;20054;-73
2022/01/14 10:22:20;;;;;;;12.25;3.63;;;8.10;99.90;;;;;;5127247;27;20054;-72
2022/01/14 10:25:01;;;;;;;12.93;3.42;;;8.10;99.90;;;;;;5126148;27;20066;-72
2022/01/14 10:27:42;;;;;;;7.72;2.72;;;8.50;99.90;;;;;;5125739;27;20039;-72
2022/01/14 10:30:11;;;;;;;8.63;2.83;;;8.20;99.90;;;;;;5108317;27;20067;-72
2022/01/14 10:32:38;;;;;;;11.40;3.13;;;8.00;99.90;;;;;;5126805;27;20525;-73
2022/01/14 10:35:08;;;;;;;7.65;3.00;;;8.20;99.90;;;;;;5125637;27;20071;-73
2022/01/14 10:37:35;;;;;;;8.52;3.88;;;8.60;99.90;;;;;;5110836;27;20096;-72
2022/01/14 10:40:06;;;;;;;13.02;3.35;;;8.40;99.90;;;;;;5108707;27;20039;-73
2022/01/14 10:42:34;;;;;;;11.40;2.90;;;8.50;99.90;;;;;;5127296;27;20058;-72
2022/01/14 10:45:22;;;;;;;12.15;3.20;;;8.80;99.90;;;;;;5092599;27;20093;-72
2022/01/14 10:48:04;;;;;;;12.88;2.90;;;8.70;99.90;;;;;;5126046;27;20518;-72
2022/01/14 10:50:40;;;;;;;10.60;3.10;;;8.30;99.90;;;;;;5125636;27;20127;-73
2022/01/14 10:53:16;;;;;;;13.57;3.40;;;8.20;99.90;;;;;;5109177;27;20126;-73
2022/01/14 10:55:47;;;;;;;9.63;2.67;;;8.20;99.90;;;;;;5125980;27;20525;-73
2022/01/14 10:58:35;;;;;;;13.88;3.38;;;8.60;99.90;;;;;;5108968;27;20189;-72
2022/01/14 11:01:06;;;;;;;9.57;2.90;;;8.70;99.90;;;;;;5126091;27;20039;-71
2022/01/14 11:03:46;;;;;;;13.15;2.83;;;8.80;99.90;;;;;;5108760;27;20090;-71
2022/01/14 11:06:28;;;;;;;16.38;3.63;;;8.90;99.90;;;;;;5108601;27;20174;-71
2022/01/14 11:09:06;;;;;;;13.73;3.90;;;8.50;99.90;;;;;;5108888;27;20035;-72
2022/01/14 11:11:35;;;;;;;13.35;3.38;;;9.00;99.90;;;;;;5108167;27;20039;-71
2022/01/14 11:14:05;;;;;;;7.90;3.20;;;8.70;99.90;;;;;;5108689;27;20066;-71
2022/01/14 11:16:31;;;;;;;12.88;3.30;;;8.70;99.90;;;;;;5125624;27;20051;-71
2022/01/14 11:19:00;;;;;;;12.93;3.50;;;9.00;99.90;;;;;;5108566;27;20047;-71
2022/01/14 11:24:25;;;;;;;11.33;3.83;;;8.80;99.90;;;;;;5126153;27;20050;-71
2022/01/14 11:26:55;;;;;;;16.23;4.65;;;8.70;99.90;;;;;;5125679;27;20078;-71
2022/01/14 11:29:22;;;;;;;12.10;4.15;;;8.50;99.90;;;;;;5115410;27;20039;-72
2022/01/14 11:32:00;;;;;;;10.60;3.38;;;8.80;99.90;;;;;;5113860;27;20376;-71
2022/01/14 11:34:42;;;;;;;11.80;3.22;;;8.70;99.90;;;;;;5124967;27;20127;-72
2022/01/14 11:37:17;;;;;;;12.50;3.65;;;8.70;99.90;;;;;;5125039;27;20129;-70
2022/01/14 11:40:06;;;;;;;14.43;4.60;;;8.70;99.90;;;;;;5125169;27;20681;-72
2022/01/14 11:42:58;;;;;;;13.85;3.67;;;8.50;99.90;;;;;;5124787;27;20120;-71
2022/01/14 11:45:42;;;;;;;15.13;3.67;;;9.20;99.90;;;;;;5124959;27;20043;-71
2022/01/14 11:48:28;;;;;;;13.15;4.22;;;8.60;99.90;;;;;;5124728;27;20046;-72
2022/01/14 11:51:03;;;;;;;14.10;3.72;;;8.60;99.90;;;;;;5108438;27;20043;-72
2022/01/14 11:53:41;;;;;;;14.75;3.78;;;9.10;99.90;;;;;;5124595;27;20065;-73
2022/01/14 11:56:29;;;;;;;12.80;3.58;;;8.80;99.90;;;;;;5107746;27;20070;-71
2022/01/14 11:59:22;;;;;;;16.15;4.00;;;8.50;99.90;;;;;;5090530;27;20653;-70
2022/01/14 12:01:50;;;;;;;10.05;3.58;;;9.30;99.90;;;;;;5107568;27;20152;-72
2022/01/14 12:04:16;;;;;;;16.92;4.13;;;8.70;99.90;;;;;;5122920;27;20047;-73
2022/01/14 12:06:51;;;;;;;10.00;3.63;;;9.20;99.90;;;;;;5107273;27;20050;-72
2022/01/14 12:09:24;;;;;;;;;;;9.20;99.90;;;;;;5107777;27;20031;-72
2022/01/14 12:12:30;;;;;;;16.08;4.03;;;9.00;99.90;;;;;;5124509;27;19980;-73
2022/01/14 12:15:02;;;;;;;10.75;4.35;;;9.20;99.90;;;;;;5122981;27;20108;-75
2022/01/14 12:17:35;;;;;;;12.70;4.30;;;9.30;99.90;;;;;;5108826;27;20047;-75
2022/01/14 12:20:18;;;;;;;14.38;4.25;;;9.00;99.90;;;;;;5124926;27;20077;-74
2022/01/14 12:23:07;;;;;;;16.52;3.75;;;9.20;99.90;;;;;;5107472;27;20078;-75
2022/01/14 12:25:40;;;;;;;11.13;4.40;;;9.20;99.90;;;;;;5104224;28;20059;-74
2022/01/14 12:28:23;;;;;;;9.67;3.50;;;9.30;99.90;;;;;;5087087;28;20515;-74
2022/01/14 12:31:02;;;;;;;16.50;4.50;;;9.40;99.90;;;;;;5104177;28;20047;-75
2022/01/14 12:33:45;;;;;;;15.25;4.88;;;9.30;99.90;;;;;;5106836;27;20041;-75
2022/01/14 12:36:19;;;;;;;13.88;4.07;;;9.40;99.90;;;;;;5106958;27;20467;-75
2022/01/14 12:38:46;;;;;;;20.17;4.55;;;9.20;99.90;;;;;;5107751;27;20054;-76
2022/01/14 12:41:24;;;;;;;14.48;4.10;;;8.70;99.90;;;;;;5124851;27;20047;-74
2022/01/14 12:43:52;;;;;;;11.55;3.67;;;9.40;99.90;;;;;;5124664;27;20562;-74
2022/01/14 12:46:37;;;;;;;14.60;4.60;;;9.20;99.90;;;;;;5124344;27;20397;-75
2022/01/14 12:49:14;;;;;;;20.95;5.28;;;9.00;99.90;;;;;;5107729;27;20035;-74
2022/01/14 12:51:40;;;;;;;13.45;4.57;;;8.90;99.90;;;;;;5124548;27;20042;-74
2022/01/14 12:54:09;;;;;;;14.63;3.97;;;9.20;99.90;;;;;;5106805;27;20035;-74
2022/01/14 12:56:39;;;;;;;17.58;5.28;;;8.90;99.90;;;;;;5123827;27;20794;-73
2022/01/14 12:59:09;;;;;;;12.75;4.18;;;9.20;99.90;;;;;;5124348;27;20054;-72
2022/01/14 13:01:44;;;;;;;19.77;5.05;;;9.20;99.90;;;;;;5124185;27;20055;-72
2022/01/14 13:04:14;;;;;;;13.13;4.82;;;9.70;99.90;;;;;;5106167;27;20047;-73
2022/01/14 13:06:47;;;;;;;15.23;4.45;;;8.90;99.90;;;;;;5086387;28;20120;-73
2022/01/14 13:09:19;;;;;;;14.25;4.20;;;9.60;99.90;;;;;;5103407;28;20134;-74
2022/01/14 13:12:02;;;;;;;15.02;4.68;;;10.20;99.90;;;;;;5087737;28;20387;-73
2022/01/14 13:14:32;;;;;;;18.50;4.63;;;9.60;99.90;;;;;;5120091;28;20090;-73
2022/01/14 13:17:03;;;;;;;21.88;5.15;;;9.20;99.90;;;;;;5106636;28;20047;-72
2022/01/14 13:19:34;;;;;;;10.27;3.78;;;9.70;99.90;;;;;;5111524;28;20059;-73